Time;durP1;ratioP1;P1;durP2;ratioP2;P2;SDS_P1;SDS_P2;PMS_P1;PMS_P2;Temp;Humidity;BMP_temperature;BMP_pressure;BME280_temperature;BME280_humidity;BME280_pressure;Samples;Min_cycle;Max_cycle;Signal;HPM_P1;HPM_P2
2022/12/24 00:01:24;;;;;;;0.33;0.33;;;;;;;-146.24;100.00;47040.22;6239506;23;20182;-93
2022/12/24 00:03:58;;;;;;;0.60;0.60;;;;;;;-146.24;100.00;47065.16;6239152;22;20171;-92
2022/12/24 00:06:27;;;;;;;1.03;1.00;;;;;;;-146.24;100.00;47032.53;6239810;23;20174;-93
2022/12/24 00:09:04;;;;;;;0.90;0.90;;;;;;;-146.24;100.00;47082.41;6239227;23;20175;-93
2022/12/24 00:11:37;;;;;;;1.37;1.27;;;;;;;-146.24;100.00;47047.88;6239456;23;20171;-93
2022/12/24 00:14:15;;;;;;;0.57;0.57;;;;;;;-146.24;100.00;47095.84;6235903;23;20570;-91
2022/12/24 00:16:52;;;;;;;0.57;0.57;;;;;;;-146.24;100.00;47032.53;6235849;22;20170;-92
2022/12/24 00:19:27;;;;;;;3.40;1.73;;;;;;;-146.24;100.00;47061.31;6238717;23;20171;-93
2022/12/24 00:21:59;;;;;;;6.50;0.87;;;;;;;-146.24;100.00;47063.22;6238235;22;20155;-93
2022/12/24 00:24:37;;;;;;;1.27;1.07;;;;;;;-146.24;100.00;47059.41;6239366;22;20159;-92
2022/12/24 00:27:14;;;;;;;0.40;0.40;;;;;;;-146.24;100.00;47051.72;6239598;22;20179;-92
2022/12/24 00:29:43;;;;;;;3.50;1.43;;;;;;;-146.24;100.00;47036.38;6238956;23;20226;-93
2022/12/24 00:32:34;;;;;;;0.73;0.73;;;;;;;-146.24;100.00;47034.47;6238418;23;20187;-92
2022/12/24 00:38:17;;;;;;;0.83;0.77;;;;;;;-146.24;100.00;47093.94;6246691;22;20298;-94
2022/12/24 00:41:07;;;;;;;1.60;1.50;;;;;;;-146.24;100.00;47099.69;6271784;22;20165;-93
2022/12/24 00:43:59;;;;;;;0.97;0.60;;;;;;;-146.24;100.00;47051.72;6270945;22;20205;-93
2022/12/24 00:46:51;;;;;;;0.97;0.43;;;;;;;-146.24;100.00;47034.47;6271049;22;20202;-91
2022/12/24 00:49:32;;;;;;;1.70;0.77;;;;;;;-146.24;100.00;47044.06;6271362;22;20472;-91
2022/12/24 00:52:06;;;;;;;1.50;0.73;;;;;;;-146.24;100.00;47040.22;6269178;22;20205;-93
2022/12/24 00:54:38;;;;;;;0.67;0.67;;;;;;;-146.24;100.00;47051.72;6266358;22;20226;-91
2022/12/24 00:57:30;;;;;;;;;;;;;;;;;;;;;
2022/12/24 01:00:16;;;;;;;1.00;0.70;;;;;;;-146.24;100.00;47057.47;6270458;22;20233;-92
2022/12/24 01:02:57;;;;;;;3.00;2.77;;;;;;;-146.24;100.00;47074.75;6271504;22;20174;-92
2022/12/24 01:05:42;;;;;;;1.17;1.17;;;;;;;-146.24;100.00;47076.66;6271647;22;20174;-93
2022/12/24 01:08:18;;;;;;;2.27;1.67;;;;;;;-146.24;100.00;47063.22;6271407;22;20178;-92
2022/12/24 01:10:49;;;;;;;1.07;0.73;;;;;;;-146.24;100.00;47059.41;6270320;22;20154;-92
2022/12/24 01:13:47;;;;;;;0.20;0.20;;;;;;;-146.24;100.00;47044.06;6270651;22;20209;-92
2022/12/24 01:22:12;;;;;;;4.73;1.70;;;;;;;-146.24;100.00;47065.16;6188167;22;20198;-92
2022/12/24 01:24:45;;;;;;;1.73;1.00;;;;;;;-146.24;100.00;47013.34;6271195;22;20206;-93
2022/12/24 01:27:34;;;;;;;;;;;;;;;;;;;;;
2022/12/24 01:30:10;;;;;;;0.20;0.20;;;;;;;-146.24;100.00;47047.88;6271112;22;20227;-92
2022/12/24 01:32:45;;;;;;;0.77;0.77;;;;;;;-146.24;100.00;47040.22;6269577;22;20190;-93
2022/12/24 01:38:13;;;;;;;1.17;1.17;;;;;;;-146.24;100.00;47051.72;6267412;22;20400;-91
2022/12/24 01:43:47;;;;;;;1.67;1.57;;;;;;;-146.24;100.00;47051.72;6271583;22;20162;-93
2022/12/24 01:46:52;;;;;;;0.47;0.47;;;;;;;-146.24;100.00;47024.88;6271593;22;20170;-92
2022/12/24 01:49:25;;;;;;;1.13;1.13;;;;;;;-146.24;100.00;47053.63;6251017;22;20195;-93
2022/12/24 01:52:01;;;;;;;0.50;0.50;;;;;;;-146.24;100.00;47097.78;6270225;22;20179;-92
2022/12/24 01:54:46;;;;;;;1.43;0.83;;;;;;;-146.24;100.00;47030.63;6266168;22;20193;-93
2022/12/24 01:57:53;;;;;;;0.50;0.37;;;;;;;-146.24;100.00;47078.59;6267310;22;20215;-91
2022/12/24 02:01:15;;;;;;;0.57;0.57;;;;;;;-146.24;100.00;47067.06;6146776;23;20173;-91
2022/12/24 02:04:01;;;;;;;0.83;0.23;;;;;;;-146.24;100.00;47065.16;6147619;23;20180;-92
2022/12/24 02:06:42;;;;;;;0.67;0.47;;;;;;;-146.24;100.00;47044.06;6116975;23;20169;-93
2022/12/24 02:09:19;;;;;;;0.20;0.20;;;;;;;-146.24;100.00;47076.66;6211923;22;20614;-93
2022/12/24 02:11:51;;;;;;;0.77;0.73;;;;;;;-146.24;100.00;47042.13;6254504;22;20167;-90
2022/12/24 02:14:26;;;;;;;1.37;0.53;;;;;;;-146.24;100.00;47051.72;6251855;22;20171;-94
2022/12/24 02:17:19;;;;;;;0.27;0.27;;;;;;;-146.24;100.00;47057.47;6251632;22;20193;-93
2022/12/24 02:20:40;;;;;;;0.50;0.50;;;;;;;-146.24;100.00;47059.41;6252618;23;20713;-92
2022/12/24 02:23:37;;;;;;;0.20;0.20;;;;;;;-146.24;100.00;47057.47;6272048;22;20236;-92
2022/12/24 02:26:39;;;;;;;0.30;0.30;;;;;;;-146.24;100.00;47034.47;6280487;22;20215;-92
2022/12/24 02:29:49;;;;;;;1.07;0.97;;;;;;;-146.24;100.00;47036.38;6278969;22;20169;-93
2022/12/24 02:32:42;;;;;;;0.40;0.40;;;;;;;-146.24;100.00;47072.81;6279609;22;20209;-92
2022/12/24 02:35:28;;;;;;;;;;;;;;;;;;;;;
2022/12/24 02:38:07;;;;;;;0.70;0.70;;;;;;;-146.24;100.00;47032.53;6300422;22;20218;-93
2022/12/24 02:40:42;;;;;;;0.57;0.57;;;;;;;-146.24;100.00;47051.72;6286323;22;20170;-92
2022/12/24 02:43:23;;;;;;;1.13;0.87;;;;;;;-146.24;100.00;47047.88;6279409;22;20165;-91
2022/12/24 02:46:10;;;;;;;0.33;0.33;;;;;;;-146.24;100.00;47067.06;6277678;22;20166;-93
2022/12/24 02:48:59;;;;;;;0.57;0.57;;;;;;;-146.24;100.00;47067.06;6278884;22;20170;-94
2022/12/24 02:52:01;;;;;;;0.57;0.57;;;;;;;-146.24;100.00;47088.19;6279085;22;20174;-92
2022/12/24 02:54:36;;;;;;;0.60;0.60;;;;;;;-146.24;100.00;47090.09;6279766;22;20245;-94
2022/12/24 02:57:17;;;;;;;0.30;0.30;;;;;;;-146.24;100.00;47045.97;6279643;22;20215;-93
2022/12/24 03:00:01;;;;;;;0.57;0.30;;;;;;;-146.24;100.00;47051.72;6279867;22;20205;-93
2022/12/24 03:02:48;;;;;;;0.53;0.53;;;;;;;-146.24;100.00;47061.31;6279067;22;20165;-92
2022/12/24 03:05:36;;;;;;;1.23;1.10;;;;;;;-146.24;100.00;47069.00;6279868;22;20162;-92
2022/12/24 03:08:18;;;;;;;1.27;0.67;;;;;;;-146.24;100.00;47021.03;6280540;22;20173;-92
2022/12/24 03:11:00;;;;;;;0.43;0.43;;;;;;;-146.24;100.00;47069.00;6257686;22;20185;-92
2022/12/24 03:13:30;;;;;;;0.73;0.73;;;;;;;-146.24;100.00;47063.22;6249701;22;20202;-93
2022/12/24 03:16:26;;;;;;;;;;;;;;;;;;;;;
2022/12/24 03:19:08;;;;;;;0.17;0.17;;;;;;;-146.24;100.00;47072.81;6248991;22;20159;-93
2022/12/24 03:21:53;;;;;;;0.77;0.77;;;;;;;-146.24;100.00;46986.50;6249298;22;20198;-93
2022/12/24 03:24:26;;;;;;;0.00;0.00;;;;;;;-146.24;100.00;47093.94;6248190;22;20198;-92
2022/12/24 03:27:08;;;;;;;0.50;0.50;;;;;;;-146.24;100.00;47015.28;6248386;22;20258;-93
2022/12/24 03:29:45;;;;;;;0.27;0.27;;;;;;;-146.24;100.00;47090.09;6249123;23;20193;-93
2022/12/24 03:32:41;;;;;;;0.73;0.73;;;;;;;-146.24;100.00;47044.06;6248259;22;20637;-93
2022/12/24 03:35:35;;;;;;;0.47;0.47;;;;;;;-146.24;100.00;47061.31;6230357;22;20198;-91
2022/12/24 03:38:19;;;;;;;0.57;0.27;;;;;;;-146.24;100.00;47080.50;6248960;22;20194;-92
2022/12/24 03:41:03;;;;;;;0.60;0.60;;;;;;;-146.24;100.00;47061.31;6247859;23;20185;-94
2022/12/24 03:43:41;;;;;;;0.87;0.87;;;;;;;-146.24;100.00;47038.28;6221560;23;20257;-95
2022/12/24 03:46:42;;;;;;;0.10;0.10;;;;;;;-146.24;100.00;47063.22;6249295;23;20220;-94
2022/12/24 03:49:20;;;;;;;2.33;2.13;;;;;;;-146.24;100.00;47057.47;6236180;22;20180;-92
2022/12/24 03:51:50;;;;;;;0.73;0.73;;;;;;;-146.24;100.00;47055.56;6249477;23;20559;-93
2022/12/24 03:54:26;;;;;;;1.30;1.00;;;;;;;-146.24;100.00;47051.72;6249262;23;20202;-92
2022/12/24 03:56:55;;;;;;;3.20;0.83;;;;;;;-146.24;100.00;47067.06;6248504;23;20167;-93
2022/12/24 03:59:43;;;;;;;1.27;1.27;;;;;;;-146.24;100.00;47059.41;6249279;22;20258;-92
2022/12/24 04:02:15;;;;;;;1.20;1.20;;;;;;;-146.24;100.00;47070.91;6251143;22;20633;-93
2022/12/24 04:04:50;;;;;;;0.13;0.13;;;;;;;-146.24;100.00;47044.06;6250287;23;20173;-93
2022/12/24 04:07:20;;;;;;;1.17;1.17;;;;;;;-146.24;100.00;47069.00;6249775;22;20167;-94
2022/12/24 04:10:03;;;;;;;0.87;0.87;;;;;;;-146.24;100.00;47051.72;6250669;23;20245;-93
2022/12/24 04:12:38;;;;;;;0.30;0.30;;;;;;;-146.24;100.00;47030.63;6252977;22;20167;-92
2022/12/24 04:15:18;;;;;;;0.93;0.93;;;;;;;-146.24;100.00;47132.31;6260159;22;20163;-90
2022/12/24 04:17:50;;;;;;;0.90;0.90;;;;;;;-146.24;100.00;47042.13;6270080;22;20161;-91
2022/12/24 04:20:22;;;;;;;0.57;0.57;;;;;;;-146.24;100.00;47067.06;6267586;22;20170;-92
2022/12/24 04:23:10;;;;;;;1.80;0.60;;;;;;;-146.24;100.00;47090.09;6261826;22;20265;-92
2022/12/24 04:25:45;;;;;;;0.67;0.57;;;;;;;-146.24;100.00;47051.72;6263544;23;20178;-92
2022/12/24 04:28:18;;;;;;;0.70;0.57;;;;;;;-146.24;100.00;47063.22;6256998;23;20217;-92
2022/12/24 04:30:52;;;;;;;0.53;0.53;;;;;;;-146.24;100.00;47040.22;6252476;22;20174;-92
2022/12/24 04:33:29;;;;;;;0.50;0.50;;;;;;;-146.24;100.00;47059.41;6252091;22;20245;-93
2022/12/24 04:36:04;;;;;;;4.07;1.23;;;;;;;-146.24;100.00;47051.72;6252665;23;20163;-92
2022/12/24 04:38:40;;;;;;;0.13;0.13;;;;;;;-146.24;100.00;47084.34;6251810;23;20162;-91
2022/12/24 04:44:19;;;;;;;0.97;0.90;;;;;;;-146.24;100.00;47074.75;6248845;22;20240;-92
2022/12/24 04:46:49;;;;;;;0.53;0.53;;;;;;;-146.24;100.00;47095.84;6251397;23;20177;-93
2022/12/24 04:49:22;;;;;;;1.00;0.73;;;;;;;-146.24;100.00;47040.22;6251809;22;20218;-93
2022/12/24 04:52:08;;;;;;;0.30;0.30;;;;;;;-146.24;100.00;47049.81;6252447;23;20171;-92
2022/12/24 04:54:42;;;;;;;4.97;1.80;;;;;;;-146.24;100.00;47040.22;6253298;23;20198;-93
2022/12/24 04:57:54;;;;;;;0.47;0.47;;;;;;;-146.24;100.00;47034.47;6251766;22;20605;-92
2022/12/24 05:00:42;;;;;;;1.07;0.77;;;;;;;-146.24;100.00;47032.53;6257626;22;20356;-92
2022/12/24 05:03:21;;;;;;;0.73;0.73;;;;;;;-146.24;100.00;47061.31;6258646;23;20170;-91
2022/12/24 05:05:58;;;;;;;0.30;0.30;;;;;;;-146.24;100.00;47059.41;6258865;22;20179;-93
2022/12/24 05:08:34;;;;;;;0.70;0.70;;;;;;;-146.24;100.00;47055.56;6259413;22;20166;-92
2022/12/24 05:11:10;;;;;;;0.77;0.77;;;;;;;-146.24;100.00;47055.56;6256196;23;20174;-92
2022/12/24 05:14:02;;;;;;;0.20;0.20;;;;;;;-146.24;100.00;47047.88;6257926;22;20220;-92
2022/12/24 05:16:46;;;;;;;0.53;0.53;;;;;;;-146.24;100.00;47042.13;6256341;23;20201;-93
2022/12/24 05:19:32;;;;;;;;;;;;;;;;;;;;;
2022/12/24 05:28:18;;;;;;;0.67;0.50;;;;;;;-146.24;100.00;47059.41;6249779;23;20608;-93
2022/12/24 05:31:01;;;;;;;0.40;0.40;;;;;;;-146.24;100.00;47044.06;6256689;22;20526;-92
2022/12/24 05:33:35;;;;;;;0.63;0.40;;;;;;;-146.24;100.00;47082.41;6257315;23;20205;-92
2022/12/24 05:36:17;;;;;;;0.37;0.37;;;;;;;-146.24;100.00;47065.16;6261517;22;20601;-93
2022/12/24 05:38:54;;;;;;;0.93;0.93;;;;;;;-146.24;100.00;47078.59;6261355;22;20171;-92
2022/12/24 05:41:29;;;;;;;1.40;0.70;;;;;;;-146.24;100.00;47074.75;6270691;22;20152;-92
2022/12/24 05:44:00;;;;;;;0.97;0.93;;;;;;;-146.24;100.00;47055.56;6269914;22;20162;-93
2022/12/24 05:46:45;;;;;;;0.27;0.27;;;;;;;-146.24;100.00;47080.50;6252326;22;20197;-92
2022/12/24 05:49:25;;;;;;;1.37;1.27;;;;;;;-146.24;100.00;47021.03;6251319;23;20167;-92
2022/12/24 05:52:04;;;;;;;0.43;0.43;;;;;;;-146.24;100.00;47040.22;6254489;22;20162;-92
2022/12/24 05:54:53;;;;;;;2.53;0.77;;;;;;;-146.24;100.00;47022.94;6249487;22;20244;-92
2022/12/24 05:57:34;;;;;;;0.97;0.97;;;;;;;-146.24;100.00;47047.88;6251508;22;20606;-93
2022/12/24 06:00:20;;;;;;;1.27;1.17;;;;;;;-146.24;100.00;47055.56;6250357;22;20179;-94
2022/12/24 06:03:04;;;;;;;0.73;0.73;;;;;;;-146.24;100.00;47003.75;6248163;22;20171;-91
2022/12/24 06:08:27;;;;;;;0.73;0.70;;;;;;;-146.24;100.00;47028.69;6231277;23;20206;-92
2022/12/24 06:11:16;;;;;;;0.40;0.40;;;;;;;-146.24;100.00;47044.06;6258259;23;20170;-90
2022/12/24 06:13:52;;;;;;;2.23;0.53;;;;;;;-146.24;100.00;47072.81;6251835;22;20194;-92
2022/12/24 06:19:55;;;;;;;0.47;0.47;;;;;;;-146.24;100.00;47040.22;6253219;22;20215;-93
2022/12/24 06:22:38;;;;;;;0.37;0.37;;;;;;;-146.24;100.00;47034.47;6250091;22;20210;-91
2022/12/24 06:28:32;;;;;;;0.20;0.20;;;;;;;-146.24;100.00;47011.44;6250056;22;20175;-92
2022/12/24 06:31:13;;;;;;;1.30;1.20;;;;;;;-146.24;100.00;47036.38;6249331;22;20175;-92
2022/12/24 06:34:35;;;;;;;1.20;1.20;;;;;;;-146.24;100.00;47013.34;6249451;22;20198;-90
2022/12/24 06:37:52;;;;;;;;;;;;;;;;;;;;;
2022/12/24 06:41:18;;;;;;;1.97;1.17;;;;;;;-146.24;100.00;47097.78;6246489;22;20162;-92
2022/12/24 06:50:54;;;;;;;0.53;0.53;;;;;;;-146.24;100.00;47032.53;6117674;23;20240;-91
2022/12/24 06:57:11;;;;;;;;;;;;;;;;;;;;;
2022/12/24 07:03:21;;;;;;;2.47;1.20;;;;;;;-146.24;100.00;46998.00;6253819;22;20175;-92
2022/12/24 07:15:40;;;;;;;1.90;1.73;;;;;;;-146.24;70.47;47005.69;6197672;23;20204;-95
2022/12/24 07:34:46;;;;;;;;;;;;;;;;;;;;;
2022/12/24 08:47:54;;;;;;;2.83;1.13;;;;;;;-146.24;82.31;47028.69;6320217;22;20177;-93
2022/12/24 09:04:08;;;;;;;;;;;;;;;;;;;;;
2022/12/24 09:10:45;;;;;;;5.80;2.27;;;;;;;-146.24;81.52;47030.63;6312216;22;20185;-95
2022/12/24 09:59:34;;;;;;;2.43;2.00;;;;;;;-146.24;75.22;47047.88;6278741;22;20216;-94
2022/12/24 10:02:36;;;;;;;2.40;2.03;;;;;;;-146.24;74.05;47013.34;6294873;22;20167;-95
2022/12/24 10:09:01;;;;;;;2.27;1.40;;;;;;;-146.24;75.81;47036.38;6292007;22;20171;-94
2022/12/24 10:18:29;;;;;;;1.70;1.60;;;;;;;-146.24;76.99;47053.63;6240718;22;20239;-94
2022/12/24 11:15:33;;;;;;;11.53;4.13;;;;;;;-146.24;74.54;47082.41;6314357;22;20301;-95
2022/12/24 12:09:30;;;;;;;6.30;4.33;;;;;;;-146.24;69.21;47042.13;6256941;22;20296;-94
2022/12/24 13:10:42;;;;;;;8.87;3.93;;;;;;;-146.24;73.39;47042.13;6237022;23;20194;-95
2022/12/24 13:17:42;;;;;;;5.87;3.13;;;;;;;-146.24;73.74;47013.34;6205220;23;20278;-92
2022/12/24 13:33:34;;;;;;;5.20;4.77;;;;;;;-146.24;79.28;47057.47;6302969;22;20300;-95
2022/12/24 13:36:56;;;;;;;5.53;2.43;;;;;;;-146.24;80.53;47059.41;6234958;22;20201;-93
2022/12/24 13:53:16;;;;;;;6.63;3.13;;;;;;;-146.24;82.45;47063.22;6293827;22;20203;-95
2022/12/24 13:59:42;;;;;;;25.10;4.80;;;;;;;-146.24;82.83;47053.63;6254393;22;20203;-95
2022/12/24 14:09:45;;;;;;;11.83;3.97;;;;;;;-146.24;84.79;47053.63;6286294;22;20232;-93
2022/12/24 14:31:40;;;;;;;7.33;5.20;;;;;;;-146.24;100.00;47051.72;6281495;22;20197;-95
2022/12/24 14:40:38;;;;;;;4.17;1.40;;;;;;;-146.24;100.00;47063.22;6282782;22;20174;-93
2022/12/24 14:44:03;;;;;;;;;;;;;;;;;;;;;
2022/12/24 14:46:47;;;;;;;1.40;1.30;;;;;;;-146.24;100.00;47045.97;6217609;23;20196;-92
2022/12/24 14:49:40;;;;;;;4.43;2.47;;;;;;;-146.24;100.00;47047.88;6281330;22;20495;-93
2022/12/24 14:52:19;;;;;;;2.93;2.63;;;;;;;-146.24;100.00;47070.91;6278171;22;20760;-94
2022/12/24 14:54:51;;;;;;;1.47;1.43;;;;;;;-146.24;100.00;47047.88;6278778;22;20172;-93
2022/12/24 14:57:25;;;;;;;2.77;1.63;;;;;;;-146.24;100.00;47005.69;6280655;22;20279;-92
2022/12/24 14:59:59;;;;;;;1.73;1.30;;;;;;;-146.24;100.00;47040.22;6286313;22;20171;-94
2022/12/24 15:02:51;;;;;;;0.87;0.87;;;;;;;-146.24;100.00;47026.78;6284638;22;20192;-91
2022/12/24 15:05:27;;;;;;;3.43;1.63;;;;;;;-146.24;100.00;47057.47;6289126;22;20170;-91
2022/12/24 15:08:08;;;;;;;2.20;1.10;;;;;;;-146.24;100.00;47070.91;6291777;22;20170;-92
2022/12/24 15:11:11;;;;;;;1.77;1.67;;;;;;;-146.24;100.00;47045.97;6294780;22;20188;-91
2022/12/24 15:13:48;;;;;;;3.00;2.37;;;;;;;-146.24;100.00;47044.06;6275467;22;20685;-93
2022/12/24 15:16:33;;;;;;;1.80;1.70;;;;;;;-146.24;100.00;47038.28;6297349;22;20198;-94
2022/12/24 15:19:07;;;;;;;1.77;1.33;;;;;;;-146.24;100.00;47051.72;6301855;22;20153;-94
2022/12/24 15:21:46;;;;;;;2.40;2.20;;;;;;;-146.24;100.00;47032.53;6302100;22;20225;-91
2022/12/24 15:24:43;;;;;;;2.60;2.37;;;;;;;-146.24;100.00;47053.63;6302248;22;20378;-94
2022/12/24 15:27:19;;;;;;;7.63;3.03;;;;;;;-146.24;100.00;47038.28;6290034;22;20168;-94
2022/12/24 15:30:00;;;;;;;3.60;1.67;;;;;;;-146.24;100.00;46999.91;6284754;22;20202;-94
2022/12/24 15:32:35;;;;;;;2.87;2.07;;;;;;;-146.24;100.00;47049.81;6287719;22;20178;-96
2022/12/24 15:35:53;;;;;;;1.27;1.17;;;;;;;-146.24;100.00;47044.06;6288090;22;20223;-93
2022/12/24 15:38:37;;;;;;;2.00;1.80;;;;;;;-146.24;100.00;47021.03;6291311;22;20173;-94
2022/12/24 15:41:20;;;;;;;1.23;1.23;;;;;;;-146.24;100.00;47070.91;6295316;22;20177;-93
2022/12/24 15:44:03;;;;;;;2.30;1.37;;;;;;;-146.24;100.00;47088.19;6299553;22;20179;-93
2022/12/24 15:46:38;;;;;;;1.83;1.70;;;;;;;-146.24;100.00;47067.06;6294380;22;20185;-93
2022/12/24 15:52:26;;;;;;;5.70;1.50;;;;;;;-146.24;100.00;47049.81;6284057;22;20174;-94
2022/12/24 15:55:10;;;;;;;6.00;1.47;;;;;;;-146.24;100.00;47051.72;6286439;22;20166;-92
2022/12/24 15:57:41;;;;;;;3.43;2.60;;;;;;;-146.24;100.00;47028.69;6284175;22;20201;-95
2022/12/24 16:00:29;;;;;;;5.57;2.00;;;;;;;-146.24;100.00;47042.13;6284948;22;20154;-96
2022/12/24 16:03:13;;;;;;;6.03;1.73;;;;;;;-146.24;100.00;47026.78;6284701;22;20276;-92
2022/12/24 16:06:00;;;;;;;7.27;2.93;;;;;;;-146.24;100.00;47105.44;6289863;22;20174;-95
2022/12/24 16:08:58;;;;;;;3.63;3.23;;;;;;;-146.24;100.00;47051.72;6296658;22;20169;-94
2022/12/24 16:11:49;;;;;;;2.10;1.77;;;;;;;-146.24;100.00;47034.47;6297250;22;20163;-93
2022/12/24 16:14:42;;;;;;;2.13;1.60;;;;;;;-146.24;100.00;47040.22;6303043;22;20230;-94
2022/12/24 16:17:45;;;;;;;2.40;2.30;;;;;;;-146.24;100.00;47076.66;6301667;22;20258;-93
2022/12/24 16:23:33;;;;;;;5.93;1.30;;;;;;;-146.24;100.00;47059.41;6288265;22;20231;-95
2022/12/24 16:27:03;;;;;;;1.63;1.53;;;;;;;-146.25;100.00;57403.91;6288447;22;20197;-96
2022/12/24 16:30:09;;;;;;;4.07;2.03;;;;;;;-146.25;100.00;57403.91;6295107;22;20288;-92
2022/12/24 16:33:06;;;;;;;1.53;1.47;;;;;;;-146.25;100.00;57403.91;6270125;22;20175;-95
2022/12/24 16:36:12;;;;;;;0.87;0.87;;;;;;;-146.25;100.00;57403.91;6269192;22;20184;-92
2022/12/24 16:39:30;;;;;;;1.23;1.13;;;;;;;-146.25;100.00;57403.91;6260381;23;20183;-96
2022/12/24 16:45:04;;;;;;;1.00;0.83;;;;;;;-146.25;100.00;57403.91;6249465;22;20292;-94
2022/12/24 16:54:09;;;;;;;0.70;0.70;;;;;;;-146.25;100.00;57403.91;6132630;23;20665;-93
2022/12/24 17:03:00;;;;;;;0.77;0.77;;;;;;;-146.25;100.00;57403.91;6288525;22;20178;-94
2022/12/24 17:05:42;;;;;;;0.90;0.53;;;;;;;-146.25;100.00;57403.91;6287375;22;20174;-94
2022/12/24 17:08:50;;;;;;;1.77;1.63;;;;;;;-146.25;100.00;57403.91;6283919;22;20211;-94
2022/12/24 17:11:34;;;;;;;2.23;0.80;;;;;;;-146.25;100.00;57403.91;6255464;23;20228;-94
2022/12/24 17:14:22;;;;;;;0.63;0.63;;;;;;;-146.25;100.00;57403.91;6254740;23;20166;-92
2022/12/24 17:17:26;;;;;;;0.83;0.83;;;;;;;-146.25;100.00;57403.91;6257069;23;20204;-95
2022/12/24 17:20:07;;;;;;;1.07;1.00;;;;;;;-146.25;100.00;57403.91;6256274;23;20167;-95
2022/12/24 17:22:52;;;;;;;0.80;0.80;;;;;;;-146.25;100.00;57403.91;6255648;23;20172;-96
2022/12/24 17:25:46;;;;;;;;;;;;;;;;;;;;;
2022/12/24 17:28:26;;;;;;;2.60;1.13;;;;;;;-146.25;100.00;57403.91;6261112;23;20175;-93
2022/12/24 17:31:07;;;;;;;2.20;0.93;;;;;;;-146.25;100.00;57403.91;6245806;22;20173;-93
2022/12/24 17:33:47;;;;;;;1.10;1.10;;;;;;;-146.25;100.00;57403.91;6271825;22;20181;-92
2022/12/24 17:36:36;;;;;;;2.63;1.47;;;;;;;-146.25;100.00;57403.91;6271919;22;20198;-91
2022/12/24 17:39:12;;;;;;;1.47;1.00;;;;;;;-146.25;100.00;57403.91;6270493;22;20167;-92
2022/12/24 17:41:44;;;;;;;1.73;1.33;;;;;;;-146.25;100.00;57403.91;6259050;23;20171;-92
2022/12/24 17:44:19;;;;;;;4.83;1.47;;;;;;;-146.25;100.00;57403.91;6260941;23;20167;-93
2022/12/24 17:47:03;;;;;;;0.77;0.77;;;;;;;-146.25;100.00;57403.91;6264455;23;20515;-93
2022/12/24 18:01:44;;;;;;;2.87;1.27;;;;;;;-146.25;100.00;57403.91;6266997;23;20163;-94
2022/12/24 18:04:35;;;;;;;0.20;0.20;;;;;;;-146.25;100.00;57403.91;6262613;22;20581;-93
2022/12/24 18:10:27;;;;;;;1.53;1.43;;;;;;;-146.25;100.00;57403.91;6225532;23;20196;-95
2022/12/24 18:19:15;;;;;;;2.17;1.53;;;;;;;-146.25;100.00;57403.91;6221323;23;20176;-94
2022/12/24 18:21:46;;;;;;;1.17;1.17;;;;;;;-146.25;100.00;57403.91;6225023;23;20206;-94
2022/12/24 18:24:26;;;;;;;1.80;1.43;;;;;;;-146.25;100.00;57403.91;6227857;23;20187;-92
2022/12/24 18:27:01;;;;;;;1.20;0.53;;;;;;;-146.25;100.00;57403.91;6234870;23;20172;-93
2022/12/24 18:29:40;;;;;;;1.87;1.07;;;;;;;-146.25;100.00;57403.91;6241062;23;20171;-93
2022/12/24 18:32:15;;;;;;;1.27;0.80;;;;;;;-146.25;100.00;57403.91;6235061;23;20223;-93
2022/12/24 18:34:56;;;;;;;2.53;1.33;;;;;;;-146.25;100.00;57403.91;6238373;23;20171;-93
2022/12/24 18:43:58;;;;;;;3.70;1.40;;;;;;;-146.25;100.00;57403.91;6222205;23;20182;-93
2022/12/24 18:46:58;;;;;;;1.33;1.23;;;;;;;-146.25;100.00;57403.91;6228296;23;20214;-93
2022/12/24 18:49:50;;;;;;;5.60;1.30;;;;;;;-146.25;100.00;57403.91;6224055;23;20178;-94
2022/12/24 19:01:55;;;;;;;0.30;0.30;;;;;;;-146.25;100.00;57403.91;6226049;23;20176;-93
2022/12/24 19:08:18;;;;;;;1.17;1.13;;;;;;;-146.25;100.00;57403.91;6226073;23;20206;-92
2022/12/24 19:11:37;;;;;;;0.50;0.50;;;;;;;-146.25;100.00;57403.91;6229600;23;20164;-93
2022/12/24 19:14:11;;;;;;;0.47;0.40;;;;;;;-146.25;100.00;57403.91;6229856;23;20233;-94
2022/12/24 19:23:24;;;;;;;0.37;0.37;;;;;;;-146.25;100.00;57403.91;6217013;23;20207;-94
2022/12/24 19:26:14;;;;;;;0.47;0.40;;;;;;;-146.25;100.00;57403.91;6214670;22;20203;-93
2022/12/24 19:29:20;;;;;;;0.77;0.77;;;;;;;-146.25;100.00;57403.91;6260925;23;20169;-94
2022/12/24 19:35:05;;;;;;;6.27;0.40;;;;;;;-146.25;100.00;57403.91;6229300;23;20699;-94
2022/12/24 19:38:21;;;;;;;;;;;;;;;;;;;;;
2022/12/24 19:50:03;;;;;;;0.03;0.03;;;;;;;-146.25;100.00;57403.91;6257277;23;20230;-93
2022/12/24 19:53:07;;;;;;;0.83;0.83;;;;;;;-146.25;100.00;57403.91;6257740;23;20170;-94
2022/12/24 20:46:42;;;;;;;4.10;2.80;;;;;;;;;;5065380;28;20279;-95
2022/12/24 20:52:55;;;;;;;2.07;1.07;;;;;;;;;;5094274;22;20231;-95
2022/12/24 21:13:36;;;;;;;1.40;0.70;;;;;;;;;;5074706;23;20213;-94
2022/12/24 21:55:18;;;;;;;;;;;;;;;;;;;;;
2022/12/24 21:58:36;;;;;;;0.33;0.33;;;;;;;;;;5021150;28;20219;-94
2022/12/24 22:22:48;;;;;;;0.13;0.13;;;;;;;;;;5069606;28;20544;-93
2022/12/24 22:28:34;;;;;;;0.00;0.00;;;;;;;;;;5062584;28;20203;-93
2022/12/24 22:40:10;;;;;;;1.70;0.40;;;;;;;;;;5046536;28;20207;-93
2022/12/24 22:46:27;;;;;;;0.77;0.47;;;;;;;;;;5044445;28;20564;-92
2022/12/24 22:49:22;;;;;;;0.23;0.13;;;;;;;;;;5062103;28;20211;-92
2022/12/24 22:52:21;;;;;;;0.33;0.33;;;;;;;;;;5062075;28;20191;-94
2022/12/24 22:57:57;;;;;;;0.13;0.13;;;;;;;;;;5086047;22;20246;-94
2022/12/24 23:03:40;;;;;;;3.30;0.73;;;;;;;;;;5074646;28;20200;-95
2022/12/24 23:06:44;;;;;;;0.90;0.77;;;;;;;;;;5062810;28;20203;-96
2022/12/24 23:09:20;;;;;;;0.10;0.10;;;;;;;;;;5062667;28;20211;-92
2022/12/24 23:12:00;;;;;;;0.30;0.30;;;;;;;;;;5062459;28;20199;-94
2022/12/24 23:17:48;;;;;;;1.20;0.40;;;;;;;;;;5061926;28;20270;-93
2022/12/24 23:20:39;;;;;;;;;;;;;;;;;;;;;
2022/12/24 23:26:35;;;;;;;0.20;0.20;;;;;;;;;;5039200;28;20235;-92
2022/12/24 23:55:31;;;;;;;0.17;0.17;;;;;;;;;;5046849;28;20226;-94
